createdAt,value
2023-05-05T00:01:05.753Z,20.16
2023-05-05T00:03:36.154Z,20.16
2023-05-05T00:06:08.349Z,20.16
2023-05-05T00:08:37.817Z,20.15
2023-05-05T00:11:06.833Z,20.04
2023-05-05T00:13:36.145Z,20.12
2023-05-05T00:16:05.253Z,20.15
2023-05-05T00:18:34.460Z,20.15
2023-05-05T00:21:04.968Z,20.13
2023-05-05T00:23:34.307Z,20.15
2023-05-05T00:26:02.981Z,20.15
2023-05-05T00:28:31.815Z,20.12
2023-05-05T00:31:00.776Z,20.11
2023-05-05T00:33:29.782Z,20.14
2023-05-05T00:35:58.203Z,20.14
2023-05-05T00:38:27.623Z,20.08
2023-05-05T00:40:56.298Z,20.15
2023-05-05T00:43:25.207Z,20.14
2023-05-05T00:46:03.245Z,20.12
2023-05-05T00:48:32.306Z,20.09
2023-05-05T00:51:01.105Z,20.09
2023-05-05T00:53:29.936Z,20.13
2023-05-05T00:55:58.443Z,20.14
2023-05-05T00:58:27.706Z,20.14
2023-05-05T01:00:56.686Z,20.13
2023-05-05T01:03:25.579Z,20.13
2023-05-05T01:06:25.295Z,20.12
2023-05-05T01:09:28.961Z,20.08
2023-05-05T01:12:27.825Z,20.11
2023-05-05T01:15:15.988Z,20.11
2023-05-05T01:17:57.056Z,20.06
2023-05-05T01:20:49.924Z,20.10
2023-05-05T01:23:57.505Z,20.08
2023-05-05T01:26:51.545Z,20.08
2023-05-05T01:30:18.032Z,20.09
2023-05-05T01:32:57.124Z,20.09
2023-05-05T01:35:56.564Z,20.03
2023-05-05T01:38:37.301Z,20.08
2023-05-05T01:41:17.805Z,20.07
2023-05-05T01:43:50.183Z,20.07
2023-05-05T01:46:19.336Z,20.06
2023-05-05T01:48:48.541Z,20.07
2023-05-05T01:51:18.391Z,20.08
2023-05-05T01:53:47.547Z,20.03
2023-05-05T01:56:16.622Z,20.07
2023-05-05T01:58:45.770Z,20.06
2023-05-05T02:01:14.368Z,20.08
2023-05-05T02:03:43.384Z,20.07
2023-05-05T02:06:11.959Z,20.04
2023-05-05T02:08:40.920Z,20.02
2023-05-05T02:11:10.308Z,20.04
2023-05-05T02:13:39.973Z,20.00
2023-05-05T02:16:08.629Z,20.06
2023-05-05T02:18:39.166Z,20.04
2023-05-05T02:21:08.192Z,20.03
2023-05-05T02:23:37.037Z,20.01
2023-05-05T02:26:10.145Z,20.03
2023-05-05T02:29:08.712Z,20.02
2023-05-05T02:31:44.373Z,19.99
2023-05-05T02:34:14.137Z,20.00
2023-05-05T02:36:42.797Z,19.98
2023-05-05T02:39:26.295Z,20.01
2023-05-05T02:41:55.467Z,20.01
2023-05-05T02:44:28.285Z,20.03
2023-05-05T02:46:58.085Z,20.01
2023-05-05T02:49:27.341Z,19.96
2023-05-05T02:52:01.276Z,19.98
2023-05-05T02:54:36.215Z,19.99
2023-05-05T02:57:11.659Z,19.99
2023-05-05T03:00:17.185Z,19.93
2023-05-05T03:02:57.954Z,19.98
2023-05-05T03:05:32.139Z,19.93
2023-05-05T03:09:06.691Z,19.99
2023-05-05T03:11:47.157Z,19.96
2023-05-05T03:14:19.350Z,19.97
2023-05-05T03:16:50.273Z,19.92
2023-05-05T03:19:19.464Z,19.93
2023-05-05T03:21:52.664Z,19.97
2023-05-05T03:24:21.706Z,19.96
2023-05-05T03:26:59.322Z,19.96
2023-05-05T03:29:34.321Z,19.96
2023-05-05T03:32:04.999Z,19.95
2023-05-05T03:34:37.506Z,19.93
2023-05-05T03:37:07.726Z,19.93
2023-05-05T03:39:36.332Z,19.93
2023-05-05T03:42:06.209Z,19.88
2023-05-05T03:44:36.808Z,19.86
2023-05-05T03:47:06.080Z,19.95
2023-05-05T03:49:38.384Z,19.95
2023-05-05T03:52:07.562Z,19.93
2023-05-05T03:54:36.959Z,19.92
2023-05-05T03:57:05.827Z,19.92
2023-05-05T03:59:34.402Z,19.91
2023-05-05T04:02:03.493Z,19.90
2023-05-05T04:04:32.521Z,19.91
2023-05-05T04:07:01.606Z,19.91
2023-05-05T04:09:30.175Z,19.91
2023-05-05T04:11:59.445Z,19.90
2023-05-05T04:14:29.258Z,19.91
2023-05-05T04:16:58.436Z,19.90
2023-05-05T04:19:27.026Z,19.91
2023-05-05T04:21:56.005Z,19.95
2023-05-05T04:24:25.288Z,19.91
2023-05-05T04:26:56.976Z,19.90
2023-05-05T04:29:26.246Z,19.92
2023-05-05T04:31:56.344Z,19.89
2023-05-05T04:34:25.194Z,19.92
2023-05-05T04:36:54.494Z,20.03
2023-05-05T04:39:23.177Z,20.08
2023-05-05T04:41:52.476Z,20.05
2023-05-05T04:44:21.211Z,20.03
2023-05-05T04:46:50.680Z,20.01
2023-05-05T04:49:19.348Z,20.01
2023-05-05T04:51:48.327Z,20.01
2023-05-05T04:54:16.868Z,20.00
2023-05-05T04:56:45.816Z,19.99
2023-05-05T04:59:15.589Z,19.96
2023-05-05T05:01:44.580Z,19.97
2023-05-05T05:04:14.195Z,19.97
2023-05-05T05:06:43.267Z,20.01
2023-05-05T05:09:12.335Z,20.01
2023-05-05T05:11:41.245Z,20.03
2023-05-05T05:14:09.809Z,20.03
2023-05-05T05:16:39.467Z,20.02
2023-05-05T05:19:08.171Z,20.02
2023-05-05T05:21:37.143Z,20.05
2023-05-05T05:24:05.997Z,20.04
2023-05-05T05:26:34.943Z,19.76
2023-05-05T05:29:04.886Z,19.47
2023-05-05T05:31:34.687Z,19.13
2023-05-05T05:34:03.994Z,18.98
2023-05-05T05:36:33.424Z,18.97
2023-05-05T05:39:02.111Z,18.96
2023-05-05T05:41:31.224Z,18.99
2023-05-05T05:44:00.176Z,18.99
2023-05-05T05:46:30.048Z,19.01
2023-05-05T05:48:59.942Z,18.87
2023-05-05T05:51:29.125Z,18.90
2023-05-05T05:53:59.034Z,19.05
2023-05-05T05:56:28.431Z,19.12
2023-05-05T05:58:57.421Z,19.32
2023-05-05T06:01:26.473Z,19.42
2023-05-05T06:03:55.521Z,19.43
2023-05-05T06:06:24.601Z,19.46
2023-05-05T06:08:53.229Z,19.53
2023-05-05T06:11:22.526Z,19.56
2023-05-05T06:13:51.268Z,19.56
2023-05-05T06:16:20.591Z,19.59
2023-05-05T06:18:50.784Z,19.62
2023-05-05T06:21:20.921Z,19.64
2023-05-05T06:23:49.763Z,19.66
2023-05-05T06:26:21.751Z,19.72
2023-05-05T06:28:50.625Z,19.73
2023-05-05T06:31:19.525Z,19.74
2023-05-05T06:33:48.101Z,19.66
2023-05-05T06:36:16.956Z,19.70
2023-05-05T06:38:45.587Z,19.58
2023-05-05T06:41:14.527Z,19.45
2023-05-05T06:43:44.484Z,19.56
2023-05-05T06:46:16.024Z,19.38
2023-05-05T06:48:44.677Z,19.25
2023-05-05T06:51:13.566Z,19.41
2023-05-05T06:53:42.374Z,19.48
2023-05-05T06:56:11.763Z,19.56
2023-05-05T06:58:40.385Z,19.59
2023-05-05T07:01:09.815Z,19.59
2023-05-05T07:03:38.485Z,19.62
2023-05-05T07:06:07.492Z,19.64
2023-05-05T07:08:36.123Z,19.69
2023-05-05T07:11:05.005Z,19.65
2023-05-05T07:13:33.601Z,19.69
2023-05-05T07:16:02.511Z,19.75
2023-05-05T07:18:31.004Z,19.73
2023-05-05T07:20:59.917Z,19.72
2023-05-05T07:23:28.506Z,19.71
2023-05-05T07:25:57.409Z,19.72
2023-05-05T07:28:26.686Z,19.75
2023-05-05T07:30:55.582Z,19.77
2023-05-05T07:33:24.088Z,19.79
2023-05-05T07:35:52.967Z,19.80
2023-05-05T07:38:21.550Z,19.90
2023-05-05T07:40:50.476Z,19.90
2023-05-05T07:43:19.118Z,19.97
2023-05-05T07:45:48.141Z,19.91
2023-05-05T07:48:16.901Z,19.91
2023-05-05T07:50:45.831Z,19.93
2023-05-05T07:53:15.408Z,20.04
2023-05-05T07:55:44.413Z,20.00
2023-05-05T07:58:13.010Z,19.96
2023-05-05T08:00:44.181Z,19.96
2023-05-05T08:03:13.269Z,20.01
2023-05-05T08:06:12.471Z,19.99
2023-05-05T08:08:40.892Z,20.08
2023-05-05T08:11:09.773Z,20.15
2023-05-05T08:13:39.376Z,20.10
2023-05-05T08:16:08.484Z,20.17
2023-05-05T08:18:38.569Z,20.17
2023-05-05T08:21:09.438Z,20.12
2023-05-05T08:23:38.873Z,20.16
2023-05-05T08:26:09.385Z,20.16
2023-05-05T08:28:37.889Z,20.11
2023-05-05T08:31:07.115Z,20.22
2023-05-05T08:33:35.712Z,20.32
2023-05-05T08:36:05.810Z,20.35
2023-05-05T08:38:34.349Z,20.32
2023-05-05T08:41:03.933Z,20.27
2023-05-05T08:43:32.994Z,20.29
2023-05-05T08:46:01.793Z,20.35
2023-05-05T08:48:30.219Z,20.37
2023-05-05T08:51:01.390Z,20.36
2023-05-05T08:53:47.401Z,20.35
2023-05-05T08:56:16.411Z,20.35
2023-05-05T08:58:44.976Z,20.42
2023-05-05T09:01:14.444Z,20.38
2023-05-05T09:03:43.645Z,20.44
2023-05-05T09:06:12.610Z,20.47
2023-05-05T09:08:41.780Z,20.50
2023-05-05T09:11:10.736Z,20.50
2023-05-05T09:13:47.892Z,20.49
2023-05-05T09:16:16.944Z,20.53
2023-05-05T09:18:45.773Z,20.57
2023-05-05T09:21:25.017Z,20.62
2023-05-05T09:24:12.738Z,20.67
2023-05-05T09:26:46.927Z,20.67
2023-05-05T09:29:22.170Z,20.64
2023-05-05T09:32:11.073Z,20.65
2023-05-05T09:34:39.702Z,20.63
2023-05-05T09:37:08.582Z,20.69
2023-05-05T09:39:37.211Z,20.78
2023-05-05T09:42:06.336Z,20.74
2023-05-05T09:44:36.562Z,20.74
2023-05-05T09:47:09.643Z,20.66
2023-05-05T09:49:58.154Z,20.79
2023-05-05T09:52:27.263Z,20.79
2023-05-05T09:54:57.339Z,20.69
2023-05-05T09:57:34.070Z,20.77
2023-05-05T10:00:04.530Z,20.80
2023-05-05T10:02:38.759Z,20.81
2023-05-05T10:05:14.956Z,20.84
2023-05-05T10:07:45.991Z,20.82
2023-05-05T10:10:18.721Z,20.87
2023-05-05T10:12:48.075Z,20.87
2023-05-05T10:15:17.048Z,20.84
2023-05-05T10:20:21.027Z,20.98
2023-05-05T10:22:53.665Z,21.01
2023-05-05T10:25:29.774Z,21.07
2023-05-05T10:28:01.845Z,21.09
2023-05-05T10:30:32.387Z,21.04
2023-05-05T10:33:27.328Z,21.03
2023-05-05T10:35:56.824Z,21.05
2023-05-05T10:38:26.798Z,21.10
2023-05-05T10:40:55.870Z,21.16
2023-05-05T10:43:25.035Z,21.15
2023-05-05T10:45:53.972Z,21.09
2023-05-05T10:48:38.631Z,21.10
2023-05-05T10:51:35.940Z,21.13
2023-05-05T10:54:17.461Z,21.14
2023-05-05T10:56:46.268Z,21.19
2023-05-05T10:59:37.383Z,21.20
2023-05-05T11:02:28.536Z,21.28
2023-05-05T11:05:21.761Z,21.34
2023-05-05T11:07:51.968Z,21.32
2023-05-05T11:10:21.380Z,21.34
2023-05-05T11:13:13.357Z,21.31
2023-05-05T11:15:42.723Z,21.41
2023-05-05T11:18:43.603Z,21.48
2023-05-05T11:21:19.012Z,21.46
2023-05-05T11:23:51.675Z,21.48
2023-05-05T11:26:51.495Z,21.53
2023-05-05T11:29:20.296Z,21.57
2023-05-05T11:32:18.417Z,21.49
2023-05-05T11:34:50.941Z,21.51
2023-05-05T11:37:22.784Z,21.59
2023-05-05T11:40:04.589Z,21.57
2023-05-05T11:42:33.721Z,21.62
2023-05-05T11:45:02.461Z,21.59
2023-05-05T11:47:31.860Z,21.49
2023-05-05T11:50:17.116Z,21.52
2023-05-05T11:52:46.307Z,21.46
2023-05-05T11:55:20.119Z,21.43
2023-05-05T11:57:49.449Z,21.40
2023-05-05T12:00:18.556Z,21.39
2023-05-05T12:02:47.948Z,21.37
2023-05-05T12:05:20.442Z,21.35
2023-05-05T12:07:49.561Z,21.34
2023-05-05T12:10:23.926Z,21.35
2023-05-05T12:12:55.392Z,21.35
2023-05-05T12:15:33.888Z,21.35
2023-05-05T12:18:03.465Z,21.33
2023-05-05T12:20:33.361Z,21.34
2023-05-05T12:23:03.386Z,21.34
2023-05-05T12:25:39.477Z,21.34
2023-05-05T12:28:09.023Z,21.36
2023-05-05T12:30:37.887Z,21.36
2023-05-05T12:33:07.929Z,21.37
2023-05-05T12:35:36.702Z,21.38
2023-05-05T12:38:06.175Z,21.42
2023-05-05T12:40:54.168Z,21.45
2023-05-05T12:43:27.312Z,21.47
2023-05-05T12:46:10.752Z,21.58
2023-05-05T12:48:41.013Z,21.81
2023-05-05T12:51:12.749Z,21.75
2023-05-05T12:53:41.831Z,21.71
2023-05-05T12:56:39.316Z,21.70
2023-05-05T12:59:09.571Z,21.81
2023-05-05T13:01:54.743Z,21.87
2023-05-05T13:04:24.677Z,22.00
2023-05-05T13:07:09.280Z,22.08
2023-05-05T13:09:38.276Z,22.02
2023-05-05T13:12:09.045Z,22.06
2023-05-05T13:14:38.683Z,22.15
2023-05-05T13:17:07.455Z,22.16
2023-05-05T13:19:42.171Z,22.22
2023-05-05T13:22:10.874Z,22.19
2023-05-05T13:24:50.631Z,22.24
2023-05-05T13:27:21.235Z,22.34
2023-05-05T13:29:50.332Z,22.34
2023-05-05T13:32:18.977Z,22.41
2023-05-05T13:34:47.884Z,22.41
2023-05-05T13:37:16.494Z,22.38
2023-05-05T13:39:45.507Z,22.42
2023-05-05T13:42:14.133Z,22.38
2023-05-05T13:44:43.073Z,22.39
2023-05-05T13:47:11.726Z,22.34
2023-05-05T13:49:40.766Z,22.28
2023-05-05T13:52:09.425Z,22.22
2023-05-05T13:54:38.400Z,22.19
2023-05-05T13:57:08.274Z,22.18
2023-05-05T13:59:37.313Z,22.20
2023-05-05T14:02:06.407Z,22.18
2023-05-05T14:04:35.488Z,22.23
2023-05-05T14:07:05.024Z,22.22
2023-05-05T14:09:34.074Z,22.18
2023-05-05T14:12:03.737Z,22.18
2023-05-05T14:14:32.703Z,22.19
2023-05-05T14:17:01.439Z,22.19
2023-05-05T14:19:31.212Z,22.15
2023-05-05T14:21:59.906Z,22.13
2023-05-05T14:24:28.906Z,22.15
2023-05-05T14:26:57.553Z,22.16
2023-05-05T14:29:26.887Z,22.14
2023-05-05T14:31:55.658Z,22.12
2023-05-05T14:34:24.663Z,22.15
2023-05-05T14:36:53.371Z,22.19
2023-05-05T14:39:22.398Z,22.21
2023-05-05T14:41:51.221Z,22.20
2023-05-05T14:44:20.313Z,22.21
2023-05-05T14:46:50.488Z,22.30
2023-05-05T14:49:20.153Z,22.30
2023-05-05T14:51:48.904Z,22.25
2023-05-05T14:54:27.366Z,22.21
2023-05-05T14:56:57.127Z,22.22
2023-05-05T14:59:27.759Z,22.21
2023-05-05T15:01:57.271Z,22.20
2023-05-05T15:04:26.563Z,22.17
2023-05-05T15:06:55.244Z,22.14
2023-05-05T15:09:24.278Z,22.15
2023-05-05T15:11:53.179Z,22.18
2023-05-05T15:14:22.346Z,22.21
2023-05-05T15:16:51.892Z,22.21
2023-05-05T15:19:21.026Z,22.23
2023-05-05T15:21:53.375Z,22.26
2023-05-05T15:24:22.412Z,22.31
2023-05-05T15:26:51.360Z,22.27
2023-05-05T15:29:20.362Z,22.22
2023-05-05T15:31:49.064Z,22.18
2023-05-05T15:34:18.279Z,22.16
2023-05-05T15:36:46.851Z,22.17
2023-05-05T15:39:15.918Z,22.12
2023-05-05T15:41:44.630Z,22.15
2023-05-05T15:44:13.726Z,22.13
2023-05-05T15:46:42.467Z,22.16
2023-05-05T15:49:11.490Z,22.15
2023-05-05T15:51:40.162Z,22.10
2023-05-05T15:54:09.184Z,22.07
2023-05-05T15:56:37.951Z,22.06
2023-05-05T15:59:07.701Z,22.12
2023-05-05T16:01:36.610Z,22.15
2023-05-05T16:04:05.789Z,22.17
2023-05-05T16:06:34.582Z,22.17
2023-05-05T16:09:04.086Z,22.18
2023-05-05T16:11:32.772Z,22.21
2023-05-05T16:14:01.828Z,22.26
2023-05-05T16:16:30.935Z,22.35
2023-05-05T16:18:59.862Z,22.37
2023-05-05T16:21:28.655Z,22.41
2023-05-05T16:23:57.878Z,22.43
2023-05-05T16:26:26.539Z,22.43
2023-05-05T16:28:55.625Z,22.45
2023-05-05T16:31:24.333Z,22.45
2023-05-05T16:33:53.356Z,22.44
2023-05-05T16:36:22.139Z,22.48
2023-05-05T16:38:51.152Z,22.51
2023-05-05T16:41:19.966Z,22.48
2023-05-05T16:43:49.245Z,22.55
2023-05-05T16:46:18.328Z,22.58
2023-05-05T16:48:47.549Z,22.52
2023-05-05T16:51:16.188Z,22.48
2023-05-05T16:53:46.613Z,22.48
2023-05-05T16:56:16.546Z,22.46
2023-05-05T16:58:45.589Z,22.42
2023-05-05T17:01:14.302Z,22.41
2023-05-05T17:03:43.383Z,22.41
2023-05-05T17:06:13.253Z,22.39
2023-05-05T17:08:42.403Z,22.39
2023-05-05T17:11:11.900Z,22.43
2023-05-05T17:13:41.114Z,22.41
2023-05-05T17:16:09.806Z,22.45
2023-05-05T17:18:38.810Z,22.60
2023-05-05T17:21:07.633Z,22.60
2023-05-05T17:23:36.801Z,22.58
2023-05-05T17:26:05.505Z,22.60
2023-05-05T17:28:34.536Z,22.61
2023-05-05T17:31:03.207Z,22.57
2023-05-05T17:33:32.402Z,22.60
2023-05-05T17:36:01.032Z,22.59
2023-05-05T17:38:30.082Z,22.55
2023-05-05T17:40:58.705Z,22.59
2023-05-05T17:43:27.766Z,22.53
2023-05-05T17:45:56.533Z,22.48
2023-05-05T17:48:26.589Z,22.47
2023-05-05T17:50:55.349Z,22.43
2023-05-05T17:53:24.446Z,22.39
2023-05-05T17:55:53.143Z,22.38
2023-05-05T17:58:22.517Z,22.32
2023-05-05T18:00:51.497Z,22.27
2023-05-05T18:03:20.780Z,22.27
2023-05-05T18:05:49.559Z,22.23
2023-05-05T18:08:18.825Z,22.21
2023-05-05T18:10:47.487Z,22.18
2023-05-05T18:13:16.504Z,22.16
2023-05-05T18:15:46.611Z,22.14
2023-05-05T18:18:15.964Z,22.12
2023-05-05T18:20:44.608Z,22.08
2023-05-05T18:23:13.999Z,22.06
2023-05-05T18:25:42.788Z,22.02
2023-05-05T18:28:12.494Z,22.01
2023-05-05T18:30:41.327Z,21.98
2023-05-05T18:33:10.251Z,21.99
2023-05-05T18:35:39.013Z,21.95
2023-05-05T18:38:08.059Z,21.92
2023-05-05T18:40:36.729Z,21.89
2023-05-05T18:43:05.771Z,21.89
2023-05-05T18:45:34.544Z,21.86
2023-05-05T18:48:03.742Z,21.86
2023-05-05T18:50:33.727Z,21.84
2023-05-05T18:53:02.920Z,21.83
2023-05-05T18:55:31.636Z,21.82
2023-05-05T18:58:00.713Z,21.78
2023-05-05T19:00:29.834Z,21.79
2023-05-05T19:02:58.719Z,21.81
2023-05-05T19:05:28.216Z,21.81
2023-05-05T19:07:57.011Z,21.78
2023-05-05T19:10:26.354Z,21.76
2023-05-05T19:12:55.831Z,21.78
2023-05-05T19:15:25.368Z,21.81
2023-05-05T19:17:55.242Z,21.82
2023-05-05T19:20:25.823Z,21.79
2023-05-05T19:22:56.244Z,21.78
2023-05-05T19:25:25.319Z,21.78
2023-05-05T19:27:54.858Z,21.77
2023-05-05T19:30:25.266Z,21.76
2023-05-05T19:32:55.183Z,21.75
2023-05-05T19:35:25.688Z,21.75
2023-05-05T19:37:56.830Z,21.74
2023-05-05T19:40:27.128Z,21.73
2023-05-05T19:42:57.258Z,21.75
2023-05-05T19:45:26.528Z,21.73
2023-05-05T19:47:57.716Z,21.75
2023-05-05T19:50:28.188Z,21.75
2023-05-05T19:52:58.355Z,21.72
2023-05-05T19:55:27.680Z,21.73
2023-05-05T19:57:56.366Z,21.72
2023-05-05T20:00:25.367Z,21.71
2023-05-05T20:02:54.093Z,21.71
2023-05-05T20:05:23.305Z,21.73
2023-05-05T20:07:52.153Z,21.70
2023-05-05T20:10:21.266Z,21.69
2023-05-05T20:12:50.504Z,21.68
2023-05-05T20:15:20.575Z,21.67
2023-05-05T20:17:49.326Z,21.68
2023-05-05T20:20:20.715Z,21.66
2023-05-05T20:22:49.735Z,21.67
2023-05-05T20:25:19.065Z,21.64
2023-05-05T20:27:47.817Z,21.64
2023-05-05T20:30:16.919Z,21.56
2023-05-05T20:32:45.790Z,21.55
2023-05-05T20:35:15.094Z,21.54
2023-05-05T20:37:45.302Z,21.53
2023-05-05T20:40:14.639Z,21.55
2023-05-05T20:42:43.437Z,21.51
2023-05-05T20:45:12.755Z,21.46
2023-05-05T20:47:41.522Z,21.45
2023-05-05T20:50:11.825Z,21.56
2023-05-05T20:52:40.799Z,21.62
2023-05-05T20:55:10.033Z,21.67
2023-05-05T20:57:38.868Z,21.70
2023-05-05T21:00:09.288Z,21.71
2023-05-05T21:02:38.447Z,21.73
2023-05-05T21:05:08.439Z,21.74
2023-05-05T21:07:37.285Z,21.73
2023-05-05T21:10:07.180Z,21.74
2023-05-05T21:12:36.210Z,21.74
2023-05-05T21:15:05.763Z,21.74
2023-05-05T21:17:34.828Z,21.74
2023-05-05T21:20:04.166Z,21.74
2023-05-05T21:22:32.859Z,21.75
2023-05-05T21:25:19.194Z,21.74
2023-05-05T21:27:48.687Z,21.75
2023-05-05T21:30:18.000Z,21.75
2023-05-05T21:32:46.975Z,21.74
2023-05-05T21:35:16.172Z,21.73
2023-05-05T21:37:44.912Z,21.73
2023-05-05T21:40:16.523Z,21.74
2023-05-05T21:42:45.198Z,21.74
2023-05-05T21:45:14.341Z,21.73
2023-05-05T21:47:43.205Z,21.73
2023-05-05T21:50:13.109Z,21.74
2023-05-05T21:52:41.999Z,21.73
2023-05-05T21:55:11.200Z,21.73
2023-05-05T21:57:39.890Z,21.73
2023-05-05T22:00:10.086Z,21.73
2023-05-05T22:02:41.715Z,21.73
2023-05-05T22:05:10.990Z,21.73
2023-05-05T22:07:40.693Z,21.73
2023-05-05T22:10:10.356Z,21.73
2023-05-05T22:12:39.237Z,21.72
2023-05-05T22:15:09.126Z,21.73
2023-05-05T22:17:38.131Z,21.73
2023-05-05T22:20:09.387Z,21.72
2023-05-05T22:22:38.470Z,21.72
2023-05-05T22:25:08.216Z,21.72
2023-05-05T22:27:37.201Z,21.72
2023-05-05T22:30:06.833Z,21.72
2023-05-05T22:32:35.722Z,21.72
2023-05-05T22:35:05.504Z,21.68
2023-05-05T22:37:34.559Z,21.72
2023-05-05T22:40:03.856Z,21.72
2023-05-05T22:42:32.671Z,21.71
2023-05-05T22:45:01.768Z,21.71
2023-05-05T22:47:31.250Z,21.73
2023-05-05T22:50:00.460Z,21.72
2023-05-05T22:52:29.275Z,21.71
2023-05-05T22:54:58.665Z,21.71
2023-05-05T22:57:27.429Z,21.71
2023-05-05T22:59:56.493Z,21.69
2023-05-05T23:02:26.839Z,21.71
2023-05-05T23:04:56.090Z,21.70
2023-05-05T23:07:24.845Z,21.71
2023-05-05T23:09:54.015Z,21.69
2023-05-05T23:12:22.619Z,21.69
2023-05-05T23:14:51.737Z,21.68
2023-05-05T23:17:20.809Z,21.70
2023-05-05T23:19:50.186Z,21.69
2023-05-05T23:22:18.969Z,21.69
2023-05-05T23:24:48.156Z,21.67
2023-05-05T23:27:16.878Z,21.68
2023-05-05T23:29:45.842Z,21.67
2023-05-05T23:32:14.645Z,21.67
2023-05-05T23:34:43.604Z,21.66
2023-05-05T23:37:14.667Z,21.67
2023-05-05T23:39:43.768Z,21.66
2023-05-05T23:42:12.502Z,21.66
2023-05-05T23:44:41.588Z,21.66
2023-05-05T23:47:10.425Z,21.65
2023-05-05T23:49:39.764Z,21.65
2023-05-05T23:52:08.463Z,21.66
2023-05-05T23:54:37.456Z,21.65
2023-05-05T23:57:06.236Z,21.65
2023-05-05T23:59:35.377Z,21.65
